createdAt,value
2022-11-30T00:01:49.997Z,12.68
2022-11-30T00:06:53.641Z,12.45
2022-11-30T00:11:57.192Z,12.29
2022-11-30T00:17:02.428Z,12.09
2022-11-30T00:22:06.103Z,11.99
2022-11-30T00:27:09.791Z,11.75
2022-11-30T00:32:14.962Z,11.55
2022-11-30T00:37:18.500Z,11.45
2022-11-30T00:42:22.134Z,11.42
2022-11-30T00:47:27.476Z,11.43
2022-11-30T00:52:31.442Z,11.50
2022-11-30T00:57:35.048Z,11.31
2022-11-30T01:02:41.270Z,11.24
2022-11-30T01:07:44.942Z,11.12
2022-11-30T01:12:48.548Z,11.09
2022-11-30T01:17:53.803Z,10.75
2022-11-30T01:22:57.560Z,10.46
2022-11-30T01:28:01.133Z,10.34
2022-11-30T01:33:06.734Z,10.14
2022-11-30T01:38:10.285Z,10.08
2022-11-30T01:43:14.124Z,10.11
2022-11-30T01:48:19.327Z,10.06
2022-11-30T01:53:23.950Z,10.01
2022-11-30T01:58:30.886Z,10.03
2022-11-30T02:03:40.708Z,9.99
2022-11-30T02:08:44.565Z,9.73
2022-11-30T02:14:14.517Z,9.56
2022-11-30T02:19:54.098Z,9.62
2022-11-30T02:25:09.186Z,9.80
2022-11-30T02:30:17.332Z,9.63
2022-11-30T02:35:25.799Z,9.57
2022-11-30T02:40:29.565Z,9.41
2022-11-30T02:45:38.939Z,9.32
2022-11-30T02:50:46.631Z,9.28
2022-11-30T02:55:50.248Z,9.20
2022-11-30T03:00:55.448Z,8.95
2022-11-30T03:05:59.032Z,8.96
2022-11-30T03:11:03.832Z,8.93
2022-11-30T03:16:11.323Z,8.86
2022-11-30T03:21:14.969Z,8.73
2022-11-30T03:26:18.627Z,8.66
2022-11-30T03:31:23.827Z,8.55
2022-11-30T03:36:27.379Z,8.42
2022-11-30T03:41:31.254Z,8.38
2022-11-30T03:46:36.478Z,8.13
2022-11-30T03:51:40.032Z,8.18
2022-11-30T03:56:43.573Z,8.05
2022-11-30T04:01:48.877Z,8.18
2022-11-30T04:06:52.501Z,8.12
2022-11-30T04:11:56.292Z,7.89
2022-11-30T04:17:01.481Z,7.85
2022-11-30T04:22:05.046Z,7.82
2022-11-30T04:27:08.609Z,7.82
2022-11-30T04:32:13.783Z,7.91
2022-11-30T04:37:17.410Z,7.86
2022-11-30T04:42:20.962Z,7.68
2022-11-30T04:47:26.176Z,7.69
2022-11-30T04:52:29.739Z,7.72
2022-11-30T04:57:33.382Z,7.80
2022-11-30T05:02:38.593Z,7.71
2022-11-30T05:07:42.181Z,7.59
2022-11-30T05:12:45.760Z,7.56
2022-11-30T05:17:50.964Z,7.43
2022-11-30T05:22:54.499Z,7.40
2022-11-30T05:27:58.068Z,7.36
2022-11-30T05:33:03.261Z,7.36
2022-11-30T05:38:06.956Z,7.27
2022-11-30T05:43:11.070Z,7.19
2022-11-30T05:48:16.307Z,7.16
2022-11-30T05:53:19.919Z,7.13
2022-11-30T05:58:26.277Z,7.09
2022-11-30T06:03:32.301Z,7.11
2022-11-30T06:08:35.856Z,6.96
2022-11-30T06:13:40.532Z,6.80
2022-11-30T06:18:46.617Z,6.73
2022-11-30T06:23:50.157Z,6.79
2022-11-30T06:28:53.884Z,6.77
2022-11-30T06:33:59.927Z,6.69
2022-11-30T06:39:03.865Z,6.47
2022-11-30T06:44:09.724Z,6.27
2022-11-30T06:49:14.956Z,6.06
2022-11-30T06:54:18.567Z,5.98
2022-11-30T06:59:22.117Z,6.08
2022-11-30T07:04:27.345Z,6.11
2022-11-30T07:09:31.632Z,5.90
2022-11-30T07:14:35.255Z,5.79
2022-11-30T07:19:40.441Z,5.74
2022-11-30T07:24:43.982Z,5.70
2022-11-30T07:29:47.528Z,5.53
2022-11-30T07:34:52.704Z,5.46
2022-11-30T07:39:56.344Z,5.47
2022-11-30T07:45:00.100Z,5.38
2022-11-30T07:50:06.056Z,5.21
2022-11-30T07:55:10.381Z,5.22
2022-11-30T08:00:14.744Z,5.22
2022-11-30T08:05:20.091Z,5.13
2022-11-30T08:10:24.429Z,5.03
2022-11-30T08:15:32.376Z,4.98
2022-11-30T08:20:38.305Z,5.03
2022-11-30T08:25:41.852Z,5.02
2022-11-30T08:30:45.669Z,4.93
2022-11-30T08:35:50.927Z,4.94
2022-11-30T08:40:58.627Z,4.93
2022-11-30T08:46:21.252Z,4.77
2022-11-30T08:51:47.483Z,4.62
2022-11-30T08:56:53.850Z,4.65
2022-11-30T09:01:57.415Z,4.60
2022-11-30T09:07:02.601Z,4.36
2022-11-30T09:12:07.020Z,4.46
2022-11-30T09:17:10.795Z,4.18
2022-11-30T09:22:15.996Z,4.32
2022-11-30T09:27:19.575Z,3.95
2022-11-30T09:32:23.154Z,4.14
2022-11-30T09:37:28.357Z,4.01
2022-11-30T09:42:44.306Z,4.14
2022-11-30T09:48:11.767Z,4.05
2022-11-30T09:53:28.961Z,4.11
2022-11-30T09:58:44.672Z,4.05
2022-11-30T10:03:48.725Z,4.14
2022-11-30T10:09:15.247Z,4.14
2022-11-30T10:14:58.629Z,4.18
2022-11-30T10:20:21.499Z,4.13
2022-11-30T10:25:33.820Z,4.02
2022-11-30T10:30:38.534Z,4.02
2022-11-30T10:35:44.119Z,3.89
2022-11-30T10:40:53.447Z,3.87
2022-11-30T10:45:57.359Z,3.97
2022-11-30T10:51:03.292Z,3.91
2022-11-30T10:56:12.208Z,3.86
2022-11-30T11:01:32.158Z,3.76
2022-11-30T11:06:36.647Z,3.61
2022-11-30T11:11:42.085Z,3.66
2022-11-30T11:16:54.630Z,3.72
2022-11-30T11:21:58.345Z,3.58
2022-11-30T11:27:03.676Z,3.46
2022-11-30T11:32:24.172Z,3.48
2022-11-30T11:37:29.400Z,3.49
2022-11-30T11:42:37.376Z,3.36
2022-11-30T11:47:44.468Z,3.44
2022-11-30T11:52:48.081Z,3.38
2022-11-30T11:57:57.912Z,3.34
2022-11-30T12:03:09.401Z,3.17
2022-11-30T12:08:17.999Z,3.14
2022-11-30T12:13:27.914Z,3.21
2022-11-30T12:18:38.382Z,3.24
2022-11-30T12:24:18.042Z,3.31
2022-11-30T12:29:26.223Z,3.16
2022-11-30T12:34:43.867Z,3.29
2022-11-30T12:39:57.851Z,3.16
2022-11-30T12:45:15.679Z,3.09
2022-11-30T12:50:30.792Z,3.09
2022-11-30T12:55:41.084Z,3.06
2022-11-30T13:00:58.538Z,3.06
2022-11-30T13:06:07.979Z,3.06
2022-11-30T13:11:18.199Z,2.91
2022-11-30T13:16:25.568Z,2.93
2022-11-30T13:21:34.030Z,2.94
2022-11-30T13:26:45.314Z,2.87
2022-11-30T13:31:57.421Z,2.89
2022-11-30T13:37:06.824Z,2.85
2022-11-30T13:42:49.002Z,2.98
2022-11-30T13:47:57.951Z,2.83
2022-11-30T13:53:31.185Z,2.78
2022-11-30T13:58:35.705Z,2.73
2022-11-30T14:03:41.764Z,2.65
2022-11-30T14:08:45.390Z,2.71
2022-11-30T14:13:49.744Z,2.73
2022-11-30T14:18:56.498Z,2.65
2022-11-30T14:24:04.521Z,2.65
2022-11-30T14:29:17.174Z,2.67
2022-11-30T14:34:25.663Z,2.82
2022-11-30T14:39:34.472Z,2.60
2022-11-30T14:44:41.175Z,2.69
2022-11-30T14:49:49.344Z,2.51
2022-11-30T14:55:03.009Z,2.52
2022-11-30T15:00:07.731Z,2.51
2022-11-30T15:05:16.866Z,2.58
2022-11-30T15:10:29.719Z,2.57
2022-11-30T15:15:36.170Z,2.79
2022-11-30T15:20:51.728Z,2.83
2022-11-30T15:25:59.575Z,2.77
2022-11-30T15:31:07.316Z,2.86
2022-11-30T15:36:27.779Z,3.03
2022-11-30T15:41:36.967Z,3.34
2022-11-30T15:46:54.965Z,3.41
2022-11-30T15:52:05.834Z,3.46
2022-11-30T15:57:09.521Z,3.54
2022-11-30T16:02:32.689Z,3.53
2022-11-30T16:07:40.087Z,3.52
2022-11-30T16:12:44.696Z,3.66
2022-11-30T16:17:48.269Z,4.03
2022-11-30T16:22:53.754Z,4.30
2022-11-30T16:27:57.331Z,4.64
2022-11-30T16:33:00.918Z,5.12
2022-11-30T16:38:06.089Z,5.47
2022-11-30T16:43:11.852Z,5.75
2022-11-30T16:48:15.445Z,6.13
2022-11-30T16:53:22.788Z,6.41
2022-11-30T16:58:28.447Z,6.84
2022-11-30T17:03:34.767Z,7.21
2022-11-30T17:08:39.987Z,7.50
2022-11-30T17:13:43.630Z,7.82
2022-11-30T17:18:47.199Z,8.07
2022-11-30T17:23:52.520Z,8.44
2022-11-30T17:28:56.734Z,8.71
2022-11-30T17:34:00.396Z,8.94
2022-11-30T17:39:08.241Z,9.28
2022-11-30T17:44:11.967Z,9.57
2022-11-30T17:49:15.557Z,9.75
2022-11-30T17:54:20.761Z,9.90
2022-11-30T17:59:24.388Z,10.06
2022-11-30T18:04:28.764Z,10.14
2022-11-30T18:09:39.266Z,10.39
2022-11-30T18:14:46.963Z,10.70
2022-11-30T18:19:50.890Z,10.73
2022-11-30T18:24:56.234Z,10.98
2022-11-30T18:30:00.206Z,11.19
2022-11-30T18:35:03.813Z,11.42
2022-11-30T18:40:10.177Z,11.54
2022-11-30T18:45:13.043Z,11.71
2022-11-30T18:50:16.693Z,11.82
2022-11-30T18:55:22.010Z,12.07
2022-11-30T19:00:25.911Z,12.22
2022-11-30T19:05:29.512Z,12.16
2022-11-30T19:10:35.992Z,12.39
2022-11-30T19:15:40.416Z,12.53
2022-11-30T19:20:43.965Z,12.76
2022-11-30T19:25:50.067Z,12.86
2022-11-30T19:30:53.737Z,13.06
2022-11-30T19:36:01.519Z,13.24
2022-11-30T19:41:08.820Z,13.42
2022-11-30T19:46:13.708Z,13.68
2022-11-30T19:51:18.798Z,13.95
2022-11-30T19:56:27.237Z,14.21
2022-11-30T20:01:31.054Z,14.22
2022-11-30T20:06:36.633Z,14.03
2022-11-30T20:11:41.848Z,13.58
2022-11-30T20:16:45.430Z,13.20
2022-11-30T20:21:49.033Z,12.86
2022-11-30T20:26:54.241Z,12.69
2022-11-30T20:31:58.210Z,12.48
2022-11-30T20:37:01.795Z,12.45
2022-11-30T20:42:07.084Z,12.61
2022-11-30T20:47:10.671Z,13.15
2022-11-30T20:52:14.245Z,13.51
2022-11-30T20:57:19.443Z,13.72
2022-11-30T21:02:23.041Z,13.24
2022-11-30T21:07:26.645Z,13.13
2022-11-30T21:12:32.222Z,13.39
2022-11-30T21:17:36.203Z,13.03
2022-11-30T21:22:39.775Z,13.26
2022-11-30T21:27:45.011Z,13.67
2022-11-30T21:32:48.583Z,13.86
2022-11-30T21:37:52.167Z,14.22
2022-11-30T21:42:57.359Z,14.33
2022-11-30T21:48:00.926Z,14.10
2022-11-30T21:53:04.553Z,13.93
2022-11-30T21:58:09.747Z,13.73
2022-11-30T22:03:18.110Z,13.26
2022-11-30T22:08:22.915Z,13.02
2022-11-30T22:13:29.624Z,13.25
2022-11-30T22:18:33.346Z,13.24
2022-11-30T22:23:38.038Z,13.46
2022-11-30T22:28:44.376Z,13.59
2022-11-30T22:33:48.194Z,13.68
2022-11-30T22:38:55.925Z,13.60
2022-11-30T22:44:01.185Z,13.80
2022-11-30T22:49:07.323Z,13.76
2022-11-30T22:54:10.149Z,13.68
2022-11-30T22:59:16.167Z,13.75
2022-11-30T23:04:20.267Z,13.92
2022-11-30T23:09:24.688Z,13.92
2022-11-30T23:14:29.919Z,14.06
2022-11-30T23:19:33.476Z,14.08
2022-11-30T23:24:37.140Z,14.02
2022-11-30T23:29:42.336Z,14.35
2022-11-30T23:34:50.479Z,14.18
2022-11-30T23:39:54.283Z,14.09
2022-11-30T23:44:59.451Z,13.66
2022-11-30T23:50:03.001Z,13.40
2022-11-30T23:55:07.679Z,13.11
